Quakertown, Pennsylvania
Current Conditions -  °F | °C
As of 12:35 PM on Thursday 23 Oct 2014 (Local Time) from KUKT Reporting Station
Overcast Overcast  
Wind Chill: 54°   Ceiling: 2300
Heat Index: 54°   Visibility: 10mi
Dew Point: 45°   Wind: 12mph
Humidity: 72%   Direction: 330°NNW
Pressure: 29.8"   Gusts: 17mph
Location:  40.44°N, 75.34°W
Report Text: KUKT 231635Z AUTO 33010G15KT 10SM BKN023 OVC040 12/07 A2980 RMK AO1
Loading
Personal Weather Stations






























Interactive Weather Map
Tropical Storm Tracking
New forecast layout! Learn more

10-Day Weather Forecast

Advertisements
Track Severe Weather on mobile